Leoma, TN (38468)

02:12 PM CST die 05o March, anno 2015 (GMT -0600)
WLX Radio Studios | Change Station
CLOSE
Current Station
Personal Weather Stations
Location: Lawrenceburg, TN
Elevation: 932 ft
Nearby Weather Stations

Elev 932 ft 35.25 °N, 87.33 °W | Updated 11 minutes ago

Aequaliter Nubila
Aequaliter Nubila
22.6 °F
Feels Like 23 °F
N
0.0
Ventus Variabilis Ventus from Magis Zephyrus quam Aquilo
Gusts 0.0 mph

Hodie
High -- | Low -- °F
--% Chance of Precip.
Yesterday
High -- | Low -- °F
Precip. -- in
6:14 AM 5:48 PM
Full, 100% visible
Pressio 30.39 in
Visibilitas -9999.0 milia passuum
Clouds Plerumque Nubila 1800 ft
Frigus Venti 23 °F
Frigus in quo Ros apparet 19 °F
Umor 87%
Rainfall in
Snow Depth Not available.
UV 3 out of 12
Pollen .90 out of 12
Air Quality Not available.
Flu Activity Not available.
METAR KMRC 051955Z AUTO 36008KT BKN018 M05/M05 A3039 RMK

More Conditions Fewer Conditions

Pressio 30.39 in
Visibilitas -9999.0 milia passuum
Clouds Plerumque Nubila 1800 ft
Frigus Venti 23 °F
Frigus in quo Ros apparet 19 °F
Umor 87%
Rainfall in
Snow Depth Not available.
UV 3 out of 12
Pollen .90 out of 12
Air Quality Not available.
Flu Activity Not available.
METAR KMRC 051955Z AUTO 36008KT BKN018 M05/M05 A3039 RMK

More Conditions Fewer Conditions

10-Day Weather Forecast

Almanac

Astronomy

Mar. 05, 2015 Rise Set
Actual Time
Civil Twilight
Nautical Twilight
Astronomical Twilight
Moon
Length Of Visible Light
Length of Day
Tomorrow will be .
, % of the Moon is Illuminated

Today's Extremes

State Highs State Lows

Community

WunderPhotos

Upload Photos

1,802,938 photos uploaded!

WunderBlogs® & News

Nearby

Air Quality

  Air Quality AQ Index Pollutant
Not available.

Snow Depth

Station Depth Elevation

Earthquake Activity

City Distance Mag. Time & Date
Minimum magnitude displayed is 2.5.

Coastal Water Temperatures

Locus Calor

Nearby Weather Stations